createdAt,value
2019-02-16T00:00:56.993Z,92.00
2019-02-16T00:03:28.017Z,92.00
2019-02-16T00:05:59.025Z,92.00
2019-02-16T00:08:30.067Z,92.00
2019-02-16T00:11:00.945Z,92.00
2019-02-16T00:13:31.919Z,91.90
2019-02-16T00:16:02.873Z,92.10
2019-02-16T00:18:33.413Z,91.70
2019-02-16T00:21:04.482Z,91.70
2019-02-16T00:23:35.420Z,91.70
2019-02-16T00:26:06.301Z,91.40
2019-02-16T00:28:36.910Z,91.50
2019-02-16T00:31:07.516Z,91.50
2019-02-16T00:33:38.539Z,91.60
2019-02-16T00:36:09.077Z,91.40
2019-02-16T00:38:39.748Z,91.40
2019-02-16T00:41:10.426Z,91.50
2019-02-16T00:43:41.092Z,91.50
2019-02-16T00:46:11.883Z,91.60
2019-02-16T00:48:42.676Z,91.60
2019-02-16T00:51:14.101Z,91.60
2019-02-16T00:53:44.835Z,91.80
2019-02-16T00:56:16.456Z,91.80
2019-02-16T00:58:47.120Z,91.70
2019-02-16T01:01:17.688Z,91.70
2019-02-16T01:03:48.271Z,91.60
2019-02-16T01:06:19.726Z,91.60
2019-02-16T01:08:50.493Z,91.50
2019-02-16T01:11:21.198Z,91.30
2019-02-16T01:13:51.885Z,91.40
2019-02-16T01:16:22.392Z,91.30
2019-02-16T01:18:53.082Z,91.30
2019-02-16T01:21:23.621Z,91.30
2019-02-16T01:23:54.553Z,91.50
2019-02-16T01:26:25.121Z,91.40
2019-02-16T01:28:56.207Z,91.30
2019-02-16T01:31:26.835Z,91.00
2019-02-16T01:33:58.223Z,91.10
2019-02-16T01:36:28.764Z,91.20
2019-02-16T01:38:59.403Z,91.30
2019-02-16T01:41:29.943Z,91.30
2019-02-16T01:44:00.730Z,91.20
2019-02-16T01:46:31.484Z,91.20
2019-02-16T01:49:02.209Z,91.10
2019-02-16T01:51:32.834Z,91.10
2019-02-16T01:54:03.746Z,91.00
2019-02-16T01:56:34.669Z,91.10
2019-02-16T01:59:05.682Z,91.20
2019-02-16T02:01:36.129Z,91.20
2019-02-16T02:04:07.087Z,91.20
2019-02-16T02:06:37.735Z,91.20
2019-02-16T02:09:08.564Z,91.60
2019-02-16T02:11:39.818Z,91.70
2019-02-16T02:14:11.522Z,91.90
2019-02-16T02:16:42.358Z,91.90
2019-02-16T02:19:12.990Z,91.90
2019-02-16T02:21:43.474Z,91.90
2019-02-16T02:24:13.949Z,91.90
2019-02-16T02:26:44.591Z,91.80
2019-02-16T02:29:15.284Z,91.80
2019-02-16T02:31:45.877Z,91.70
2019-02-16T02:34:16.393Z,91.90
2019-02-16T02:36:47.042Z,91.90
2019-02-16T02:39:17.858Z,91.90
2019-02-16T02:41:48.442Z,92.00
2019-02-16T02:44:19.417Z,91.90
2019-02-16T02:46:50.252Z,92.30
2019-02-16T02:49:20.993Z,92.00
2019-02-16T02:51:52.603Z,92.00
2019-02-16T02:54:25.059Z,92.20
2019-02-16T02:56:55.862Z,92.30
2019-02-16T02:59:26.817Z,92.30
2019-02-16T03:01:57.595Z,92.40
2019-02-16T03:04:28.187Z,92.30
2019-02-16T03:06:59.129Z,92.30
2019-02-16T03:09:29.799Z,92.50
2019-02-16T03:12:00.689Z,92.80
2019-02-16T03:14:31.383Z,92.50
2019-02-16T03:17:02.101Z,92.30
2019-02-16T03:19:32.619Z,92.50
2019-02-16T03:22:03.480Z,92.50
2019-02-16T03:24:34.142Z,92.50
2019-02-16T03:27:40.304Z,92.40
2019-02-16T03:30:33.897Z,92.40
2019-02-16T03:33:38.577Z,92.50
2019-02-16T03:36:49.667Z,92.50
2019-02-16T03:39:30.416Z,92.40
2019-02-16T03:42:01.400Z,92.20
2019-02-16T03:44:33.079Z,92.20
2019-02-16T03:47:04.117Z,92.40
2019-02-16T03:49:35.062Z,92.50
2019-02-16T03:52:13.345Z,92.90
2019-02-16T03:54:38.378Z,92.40
2019-02-16T03:57:10.266Z,92.50
2019-02-16T03:59:41.112Z,92.60
2019-02-16T04:02:12.007Z,92.50
2019-02-16T04:04:42.626Z,92.50
2019-02-16T04:07:13.103Z,92.50
2019-02-16T04:09:43.907Z,92.70
2019-02-16T04:12:14.636Z,92.70
2019-02-16T04:14:45.492Z,92.70
2019-02-16T04:17:16.114Z,92.60
2019-02-16T04:19:46.963Z,92.50
2019-02-16T04:22:24.616Z,92.50
2019-02-16T04:24:50.898Z,92.70
2019-02-16T04:27:21.775Z,92.70
2019-02-16T04:29:53.432Z,92.70
2019-02-16T04:32:24.125Z,92.70
2019-02-16T04:34:54.717Z,92.70
2019-02-16T04:37:25.915Z,92.80
2019-02-16T04:39:56.703Z,92.90
2019-02-16T04:42:27.453Z,93.00
2019-02-16T04:44:58.167Z,93.10
2019-02-16T04:47:29.323Z,93.00
2019-02-16T04:50:00.288Z,93.10
2019-02-16T04:52:34.691Z,93.30
2019-02-16T04:55:04.104Z,93.40
2019-02-16T04:57:34.807Z,93.50
2019-02-16T05:00:05.829Z,93.50
2019-02-16T05:02:36.529Z,93.50
2019-02-16T05:05:07.604Z,93.30
2019-02-16T05:07:38.309Z,93.30
2019-02-16T05:10:09.928Z,93.40
2019-02-16T05:12:40.820Z,93.60
2019-02-16T05:15:11.499Z,93.60
2019-02-16T05:17:42.466Z,93.80
2019-02-16T05:20:13.090Z,93.90
2019-02-16T05:22:44.929Z,93.90
2019-02-16T05:25:15.997Z,93.90
2019-02-16T05:27:46.733Z,93.90
2019-02-16T05:36:17.870Z,94.10
2019-02-16T05:38:48.631Z,94.30
2019-02-16T05:41:19.332Z,94.00
2019-02-16T05:43:49.809Z,93.90
2019-02-16T05:46:20.803Z,94.10
2019-02-16T05:48:51.228Z,93.90
2019-02-16T05:51:21.747Z,94.10
2019-02-16T05:53:52.251Z,94.10
2019-02-16T05:56:22.700Z,94.20
2019-02-16T05:58:53.882Z,93.90
2019-02-16T06:01:24.484Z,94.00
2019-02-16T06:03:55.083Z,94.10
2019-02-16T06:06:26.003Z,93.90
2019-02-16T06:08:56.537Z,93.80
2019-02-16T06:11:27.112Z,93.80
2019-02-16T06:13:57.893Z,93.80
2019-02-16T06:16:28.715Z,93.70
2019-02-16T06:18:59.347Z,94.00
2019-02-16T06:21:30.352Z,93.50
2019-02-16T06:24:01.114Z,93.30
2019-02-16T06:26:32.726Z,93.00
2019-02-16T06:29:03.345Z,92.80
2019-02-16T06:31:33.908Z,92.80
2019-02-16T06:34:04.340Z,92.40
2019-02-16T06:36:42.548Z,91.80
2019-02-16T06:39:13.036Z,91.40
2019-02-16T06:41:43.827Z,91.00
2019-02-16T06:44:14.847Z,90.70
2019-02-16T06:46:45.307Z,90.60
2019-02-16T06:49:16.302Z,90.10
2019-02-16T06:51:47.293Z,89.00
2019-02-16T06:54:17.955Z,87.80
2019-02-16T06:57:08.862Z,86.20
2019-02-16T06:59:39.652Z,85.30
2019-02-16T07:02:10.413Z,84.30
2019-02-16T07:04:41.060Z,84.30
2019-02-16T07:07:11.793Z,83.70
2019-02-16T07:09:42.687Z,83.70
2019-02-16T07:12:13.611Z,82.50
2019-02-16T07:14:44.237Z,80.80
2019-02-16T07:17:37.167Z,81.00
2019-02-16T07:20:08.538Z,80.50
2019-02-16T07:22:39.317Z,79.80
2019-02-16T07:25:10.503Z,79.20
2019-02-16T07:27:41.194Z,78.90
2019-02-16T07:30:12.250Z,78.50
2019-02-16T07:32:43.035Z,78.20
2019-02-16T07:35:13.895Z,78.00
2019-02-16T07:37:44.516Z,77.40
2019-02-16T07:40:15.116Z,76.40
2019-02-16T07:42:57.320Z,75.80
2019-02-16T07:45:38.895Z,75.30
2019-02-16T07:48:17.557Z,75.30
2019-02-16T07:50:56.822Z,74.30
2019-02-16T07:53:52.378Z,73.10
2019-02-16T07:56:29.906Z,72.30
2019-02-16T07:59:22.710Z,71.70
2019-02-16T08:02:17.856Z,70.90
2019-02-16T08:04:55.677Z,69.90
2019-02-16T08:07:54.852Z,69.60
2019-02-16T08:10:47.384Z,69.70
2019-02-16T08:13:35.676Z,68.90
2019-02-16T08:16:25.156Z,68.20
2019-02-16T08:19:13.395Z,67.90
2019-02-16T08:22:11.759Z,67.30
2019-02-16T08:25:13.490Z,64.90
2019-02-16T08:27:53.810Z,63.70
2019-02-16T08:30:41.917Z,63.00
2019-02-16T08:33:21.345Z,64.00
2019-02-16T08:36:16.833Z,62.70
2019-02-16T08:39:10.518Z,62.40
2019-02-16T08:42:15.411Z,61.20
2019-02-16T08:44:54.963Z,60.40
2019-02-16T08:47:44.811Z,58.80
2019-02-16T08:50:29.550Z,58.70
2019-02-16T08:53:14.380Z,57.00
2019-02-16T08:56:01.099Z,55.30
2019-02-16T08:58:40.048Z,55.10
2019-02-16T09:01:44.882Z,52.80
2019-02-16T09:04:37.569Z,53.20
2019-02-16T09:07:27.127Z,52.90
2019-02-16T09:10:16.722Z,51.90
2019-02-16T09:12:51.835Z,51.50
2019-02-16T09:15:40.316Z,51.90
2019-02-16T09:18:32.722Z,51.90
2019-02-16T09:21:15.163Z,51.10
2019-02-16T09:24:03.461Z,50.50
2019-02-16T09:26:52.984Z,49.60
2019-02-16T09:29:45.740Z,47.70
2019-02-16T09:32:50.780Z,46.90
2019-02-16T09:35:28.030Z,49.00
2019-02-16T09:38:07.855Z,48.90
2019-02-16T09:40:56.514Z,48.30
2019-02-16T09:43:58.188Z,47.30
2019-02-16T09:46:46.703Z,47.40
2019-02-16T09:49:39.178Z,46.10
2019-02-16T09:52:27.739Z,45.50
2019-02-16T09:55:13.192Z,44.30
2019-02-16T09:58:11.377Z,43.20
2019-02-16T10:00:48.126Z,44.10
2019-02-16T10:03:56.022Z,42.00
2019-02-16T10:06:48.998Z,43.00
2019-02-16T10:09:34.277Z,42.50
2019-02-16T10:12:29.683Z,42.50
2019-02-16T10:15:17.664Z,42.20
2019-02-16T10:18:13.041Z,42.80
2019-02-16T10:21:11.801Z,41.80
2019-02-16T10:24:01.481Z,42.50
2019-02-16T10:26:49.977Z,44.10
2019-02-16T10:29:38.298Z,43.80
2019-02-16T10:32:26.494Z,44.80
2019-02-16T10:35:05.593Z,43.70
2019-02-16T10:37:55.294Z,43.60
2019-02-16T10:40:54.794Z,43.90
2019-02-16T10:43:51.402Z,42.60
2019-02-16T10:46:39.925Z,42.10
2019-02-16T10:49:29.452Z,40.80
2019-02-16T10:52:06.170Z,41.10
2019-02-16T10:54:54.932Z,41.30
2019-02-16T10:57:43.184Z,42.00
2019-02-16T11:00:32.804Z,41.70
2019-02-16T11:03:10.000Z,41.50
2019-02-16T11:06:02.872Z,40.70
2019-02-16T11:08:50.459Z,42.20
2019-02-16T11:11:51.873Z,41.50
2019-02-16T11:14:50.230Z,40.90
2019-02-16T11:17:36.903Z,42.50
2019-02-16T11:20:19.497Z,42.20
2019-02-16T11:23:09.163Z,43.20
2019-02-16T11:25:57.871Z,43.70
2019-02-16T11:28:47.398Z,42.90
2019-02-16T11:31:37.467Z,42.80
2019-02-16T11:34:27.386Z,42.60
2019-02-16T11:37:22.389Z,43.00
2019-02-16T11:40:08.401Z,43.60
2019-02-16T11:43:03.282Z,43.90
2019-02-16T11:46:11.056Z,43.30
2019-02-16T11:49:09.611Z,43.80
2019-02-16T11:52:08.119Z,43.70
2019-02-16T11:54:57.203Z,45.10
2019-02-16T11:57:45.942Z,43.80
2019-02-16T12:00:53.854Z,43.90
2019-02-16T12:03:58.645Z,43.90
2019-02-16T12:06:43.028Z,43.80
2019-02-16T12:09:31.286Z,44.80
2019-02-16T12:12:14.030Z,44.90
2019-02-16T12:14:52.962Z,45.00
2019-02-16T12:17:48.532Z,45.00
2019-02-16T12:23:24.305Z,44.30
2019-02-16T12:26:06.150Z,43.80
2019-02-16T12:28:56.174Z,44.10
2019-02-16T12:31:34.205Z,44.80
2019-02-16T12:34:10.864Z,44.70
2019-02-16T12:37:19.358Z,42.60
2019-02-16T12:39:59.349Z,42.90
2019-02-16T12:43:00.554Z,42.70
2019-02-16T12:45:38.825Z,42.70
2019-02-16T12:48:23.515Z,42.60
2019-02-16T12:51:07.572Z,42.40
2019-02-16T12:54:00.181Z,42.30
2019-02-16T12:56:52.666Z,41.60
2019-02-16T12:59:42.297Z,41.30
2019-02-16T13:02:29.822Z,41.40
2019-02-16T13:05:25.160Z,41.70
2019-02-16T13:08:26.750Z,41.40
2019-02-16T13:11:16.345Z,40.80
2019-02-16T13:14:17.931Z,40.10
2019-02-16T13:17:07.324Z,39.40
2019-02-16T13:19:59.667Z,38.60
2019-02-16T13:22:52.289Z,40.00
2019-02-16T13:25:42.774Z,40.20
2019-02-16T13:28:43.848Z,39.40
2019-02-16T13:31:24.344Z,39.40
2019-02-16T13:34:12.465Z,39.80
2019-02-16T13:36:54.466Z,39.80
2019-02-16T13:39:34.969Z,39.40
2019-02-16T13:42:16.788Z,39.40
2019-02-16T13:45:01.038Z,37.40
2019-02-16T13:47:51.500Z,36.20
2019-02-16T13:50:41.008Z,36.50
2019-02-16T13:53:36.614Z,36.00
2019-02-16T13:56:26.046Z,35.30
2019-02-16T13:59:11.583Z,35.60
2019-02-16T14:01:55.500Z,35.20
2019-02-16T14:04:37.661Z,35.30
2019-02-16T14:07:27.162Z,34.70
2019-02-16T14:10:11.565Z,34.70
2019-02-16T14:13:09.933Z,34.50
2019-02-16T14:15:59.606Z,34.50
2019-02-16T14:18:30.077Z,35.20
2019-02-16T14:21:00.753Z,35.70
2019-02-16T14:23:31.527Z,36.10
2019-02-16T14:26:02.379Z,36.30
2019-02-16T14:28:32.925Z,36.70
2019-02-16T14:31:03.641Z,36.30
2019-02-16T14:33:34.280Z,35.90
2019-02-16T14:36:05.014Z,35.50
2019-02-16T14:38:57.339Z,35.80
2019-02-16T14:41:28.072Z,35.60
2019-02-16T14:43:58.791Z,35.50
2019-02-16T14:46:29.397Z,34.40
2019-02-16T14:49:00.077Z,34.70
2019-02-16T14:51:30.789Z,35.10
2019-02-16T14:54:01.351Z,35.60
2019-02-16T14:56:32.030Z,36.10
2019-02-16T14:59:02.948Z,36.10
2019-02-16T15:01:33.663Z,36.60
2019-02-16T15:04:04.422Z,37.30
2019-02-16T15:06:36.498Z,37.40
2019-02-16T15:09:07.480Z,37.30
2019-02-16T15:11:38.460Z,37.50
2019-02-16T15:14:09.017Z,37.50
2019-02-16T15:16:39.794Z,37.90
2019-02-16T15:19:10.424Z,38.00
2019-02-16T15:21:40.953Z,38.30
2019-02-16T15:24:11.526Z,38.40
2019-02-16T15:26:42.072Z,38.70
2019-02-16T15:29:12.666Z,38.90
2019-02-16T15:31:43.170Z,38.90
2019-02-16T15:34:13.798Z,40.20
2019-02-16T15:36:44.532Z,41.30
2019-02-16T15:39:15.470Z,42.00
2019-02-16T15:41:46.068Z,42.70
2019-02-16T15:44:16.639Z,43.20
2019-02-16T15:46:47.223Z,43.30
2019-02-16T15:49:17.861Z,44.00
2019-02-16T15:51:48.363Z,44.30
2019-02-16T15:54:19.021Z,45.40
2019-02-16T15:56:50.944Z,44.90
2019-02-16T15:59:21.854Z,45.30
2019-02-16T16:01:52.417Z,45.50
2019-02-16T16:04:22.932Z,45.80
2019-02-16T16:06:53.463Z,46.20
2019-02-16T16:09:32.121Z,46.40
2019-02-16T16:12:10.774Z,46.60
2019-02-16T16:17:58.578Z,47.30
2019-02-16T16:21:02.904Z,47.30
2019-02-16T16:23:48.076Z,47.30
2019-02-16T16:26:40.237Z,47.60
2019-02-16T16:29:37.142Z,47.80
2019-02-16T16:32:31.061Z,48.00
2019-02-16T16:35:19.101Z,48.30
2019-02-16T16:37:56.425Z,48.70
2019-02-16T16:40:42.616Z,48.90
2019-02-16T16:43:38.418Z,49.30
2019-02-16T16:46:27.856Z,49.50
2019-02-16T16:49:23.168Z,49.80
2019-02-16T16:52:10.016Z,50.00
2019-02-16T16:55:02.886Z,50.20
2019-02-16T16:57:43.121Z,50.70
2019-02-16T17:00:35.664Z,51.30
2019-02-16T17:03:27.961Z,51.30
2019-02-16T17:06:15.869Z,51.30
2019-02-16T17:08:59.449Z,51.40
2019-02-16T17:11:49.365Z,51.50
2019-02-16T17:14:32.386Z,51.90
2019-02-16T17:17:20.451Z,52.40
2019-02-16T17:20:04.496Z,52.70
2019-02-16T17:22:56.813Z,53.60
2019-02-16T17:25:44.773Z,54.00
2019-02-16T17:28:29.016Z,54.50
2019-02-16T17:31:30.541Z,54.60
2019-02-16T17:34:19.424Z,54.60
2019-02-16T17:37:07.424Z,54.80
2019-02-16T17:39:59.869Z,54.80
2019-02-16T17:42:41.503Z,55.00
2019-02-16T17:45:40.842Z,55.20
2019-02-16T17:48:33.111Z,55.40
2019-02-16T17:51:28.363Z,55.40
2019-02-16T17:54:26.539Z,55.50
2019-02-16T17:57:19.037Z,55.40
2019-02-16T18:00:26.499Z,55.70
2019-02-16T18:03:13.047Z,55.70
2019-02-16T18:05:53.585Z,55.90
2019-02-16T18:08:45.899Z,56.10
2019-02-16T18:11:44.573Z,56.40
2019-02-16T18:14:45.875Z,56.60
2019-02-16T18:17:38.940Z,56.90
2019-02-16T18:20:31.531Z,57.10
2019-02-16T18:23:19.872Z,57.30
2019-02-16T18:26:15.441Z,57.50
2019-02-16T18:29:13.680Z,57.80
2019-02-16T18:31:58.655Z,58.20
2019-02-16T18:34:49.680Z,58.70
2019-02-16T18:37:38.060Z,59.00
2019-02-16T18:40:25.684Z,59.00
2019-02-16T18:43:15.240Z,59.20
2019-02-16T18:46:07.433Z,59.40
2019-02-16T18:49:05.941Z,59.80
2019-02-16T18:52:01.443Z,60.20
2019-02-16T18:54:54.025Z,60.70
2019-02-16T18:57:35.165Z,61.30
2019-02-16T19:00:30.960Z,61.50
2019-02-16T19:03:12.351Z,62.80
2019-02-16T19:05:49.151Z,63.00
2019-02-16T19:08:53.562Z,63.30
2019-02-16T19:11:49.524Z,63.70
2019-02-16T19:14:38.947Z,64.50
2019-02-16T19:17:25.477Z,64.60
2019-02-16T19:20:13.632Z,66.50
2019-02-16T19:23:03.115Z,66.20
2019-02-16T19:25:47.136Z,66.90
2019-02-16T19:28:27.887Z,67.70
2019-02-16T19:31:17.510Z,67.20
2019-02-16T19:34:19.097Z,67.20
2019-02-16T19:37:11.435Z,67.50
2019-02-16T19:39:59.293Z,67.90
2019-02-16T19:42:39.105Z,68.60
2019-02-16T19:45:22.821Z,69.00
2019-02-16T19:48:16.743Z,69.20
2019-02-16T19:51:04.865Z,69.50
2019-02-16T19:53:53.053Z,69.60
2019-02-16T19:56:46.999Z,70.40
2019-02-16T19:59:30.077Z,70.30
2019-02-16T20:02:22.554Z,70.90
2019-02-16T20:05:30.023Z,70.90
2019-02-16T20:08:28.296Z,71.30
2019-02-16T20:11:23.816Z,71.90
2019-02-16T20:14:16.045Z,71.90
2019-02-16T20:17:08.224Z,72.10
2019-02-16T20:19:44.348Z,72.50
2019-02-16T20:22:36.181Z,72.80
2019-02-16T20:25:22.782Z,73.00
2019-02-16T20:28:27.176Z,73.30
2019-02-16T20:31:19.555Z,73.50
2019-02-16T20:34:02.194Z,73.40
2019-02-16T20:36:51.805Z,73.60
2019-02-16T20:39:50.178Z,73.60
2019-02-16T20:42:45.534Z,73.50
2019-02-16T20:45:21.058Z,73.40
2019-02-16T20:48:13.346Z,73.60
2019-02-16T20:50:58.018Z,73.60
2019-02-16T20:53:48.385Z,73.90
2019-02-16T20:56:37.034Z,74.10
2019-02-16T20:59:41.621Z,74.00
2019-02-16T21:02:34.125Z,74.10
2019-02-16T21:05:15.683Z,74.40
2019-02-16T21:08:03.494Z,74.60
2019-02-16T21:11:11.025Z,74.80
2019-02-16T21:13:52.916Z,75.10
2019-02-16T21:16:40.915Z,75.00
2019-02-16T21:19:33.422Z,75.30
2019-02-16T21:22:21.368Z,75.70
2019-02-16T21:24:57.590Z,75.70
2019-02-16T21:27:47.024Z,75.70
2019-02-16T21:30:34.826Z,76.00
2019-02-16T21:33:18.917Z,76.20
2019-02-16T21:35:57.996Z,76.80
2019-02-16T21:38:45.222Z,76.30
2019-02-16T21:41:30.367Z,76.50
2019-02-16T21:44:22.641Z,76.80
2019-02-16T21:47:05.819Z,76.90
2019-02-16T21:49:58.074Z,76.70
2019-02-16T21:53:00.509Z,77.30
2019-02-16T21:55:37.380Z,78.00
2019-02-16T21:58:36.044Z,78.00
2019-02-16T22:01:24.022Z,78.60
2019-02-16T22:04:02.948Z,79.30
2019-02-16T22:06:47.187Z,78.40
2019-02-16T22:09:35.563Z,78.40
2019-02-16T22:12:15.178Z,78.50
2019-02-16T22:14:45.742Z,78.50
2019-02-16T22:17:16.430Z,79.00
2019-02-16T22:19:47.352Z,79.10
2019-02-16T22:22:18.082Z,79.60
2019-02-16T22:24:48.694Z,79.90
2019-02-16T22:27:19.345Z,80.00
2019-02-16T22:29:49.888Z,80.30
2019-02-16T22:32:21.040Z,80.40
2019-02-16T22:34:51.653Z,80.50
2019-02-16T22:37:22.165Z,80.60
2019-02-16T22:39:52.771Z,80.80
2019-02-16T22:42:23.528Z,81.30
2019-02-16T22:44:54.034Z,81.60
2019-02-16T22:47:24.663Z,81.60
2019-02-16T22:49:55.358Z,81.60
2019-02-16T22:52:26.014Z,81.70
2019-02-16T22:54:56.597Z,81.60
2019-02-16T22:57:27.423Z,82.40
2019-02-16T22:59:57.958Z,82.40
2019-02-16T23:02:28.601Z,82.60
2019-02-16T23:04:59.279Z,82.70
2019-02-16T23:07:29.883Z,82.60
2019-02-16T23:10:00.600Z,82.80
2019-02-16T23:12:32.849Z,82.90
2019-02-16T23:15:03.455Z,83.20
2019-02-16T23:17:35.317Z,83.10
2019-02-16T23:20:06.991Z,83.30
2019-02-16T23:22:37.773Z,83.30
2019-02-16T23:25:08.893Z,83.30
2019-02-16T23:27:39.562Z,83.50
2019-02-16T23:30:10.501Z,83.40
2019-02-16T23:32:41.274Z,83.30
2019-02-16T23:35:12.339Z,83.40
2019-02-16T23:37:43.020Z,83.80
2019-02-16T23:40:13.669Z,83.90
2019-02-16T23:42:44.247Z,84.10
2019-02-16T23:45:15.120Z,83.80
2019-02-16T23:47:45.741Z,83.90
2019-02-16T23:50:16.554Z,83.70
2019-02-16T23:52:47.220Z,83.90
2019-02-16T23:55:17.846Z,83.90
2019-02-16T23:57:48.659Z,83.90
